Tiffin, OH

4:00 PM EST on February 01, 2015 (GMT -0500)
River Road near Isaac Walton | Change Station
CLOSE
Current Station
Personal Weather Station
Location: Tiffin, OH
Elevation: 709 ft
Nearby Weather Stations
Active Advisory: Winter Storm Warning Active Notice: Public Information Statement

Elev 709 ft 41.19 °N, 83.14 °W | Updated 33 seconds ago

Snow
Snow
34.0 °F
Feels Like 30 °F
N
4.9
Wind Variable Wind from ESE
Gusts 4.9 mph

Today
High -- | Low -- °F
--% Chance of Precip.
Yesterday
High -- | Low -- °F
Precip. -- in
7:43 AM 5:49 PM
Waxing Gibbous, 96% visible
Pressure 29.73 in
Visibility 0.8 miles
Clouds Mostly Cloudy 300 ft
Overcast 1100 ft
Windchill 30 °F
Dew Point 25 °F
Humidity 69%
Rainfall 0.00 in
Snow Depth Not available.
UV 0 out of 12
Pollen .10 out of 12
Air Quality Not available.
Flu Activity Not available.
METAR KFDY 012053Z AUTO 07010KT 3/4SM -SN BR BKN003 OVC011 01/00 A2971 RMK AO2 SLP065 P0005 60006 T00110000 58055

More Conditions Fewer Conditions

Pressure 29.73 in
Visibility 0.8 miles
Clouds Mostly Cloudy 300 ft
Overcast 1100 ft
Windchill 30 °F
Dew Point 25 °F
Humidity 69%
Rainfall 0.00 in
Snow Depth Not available.
UV 0 out of 12
Pollen .10 out of 12
Air Quality Not available.
Flu Activity Not available.
METAR KFDY 012053Z AUTO 07010KT 3/4SM -SN BR BKN003 OVC011 01/00 A2971 RMK AO2 SLP065 P0005 60006 T00110000 58055

More Conditions Fewer Conditions

10-Day Weather Forecast

Almanac

Astronomy

Feb. 01, 2015 Rise Set
Actual Time
Civil Twilight
Nautical Twilight
Astronomical Twilight
Moon
Length of Visible Light
Length of Day
Tomorrow will be .
, % of the Moon is Illuminated

Today's Extremes

State Highs State Lows

Community

WunderPhotos

Upload Photos

1,792,529 photos uploaded!

WunderBlogs® & News

Nearby

Air Quality

  Air Quality AQ Index Pollutant
Not available.

Snow Depth

Station Depth Elevation

Earthquake Activity

City Distance Mag. Time & Date
Minimum magnitude displayed is 2.5.

Coastal Water Temperatures

Place Temperature

Nearby Weather Stations